sensor_id;sensor_type;location;lat;lon;timestamp;pressure;altitude;pressure_sealevel;temperature;humidity
51999;BME280;38015;50.924;11.598;2023-01-31T00:01:41;99743.98;;;21.25;23.69
51999;BME280;38015;50.924;11.598;2023-01-31T00:04:11;99745.44;;;21.23;23.75
51999;BME280;38015;50.924;11.598;2023-01-31T00:06:43;99748.98;;;21.22;23.80
51999;BME280;38015;50.924;11.598;2023-01-31T00:09:12;99752.69;;;21.23;23.73
51999;BME280;38015;50.924;11.598;2023-01-31T00:11:43;99755.99;;;21.17;23.80
51999;BME280;38015;50.924;11.598;2023-01-31T00:14:18;99757.84;;;21.18;23.81
51999;BME280;38015;50.924;11.598;2023-01-31T00:16:44;99749.33;;;21.25;23.73
51999;BME280;38015;50.924;11.598;2023-01-31T00:19:16;99749.54;;;21.25;23.71
51999;BME280;38015;50.924;11.598;2023-01-31T00:21:45;99742.62;;;21.25;23.76
51999;BME280;38015;50.924;11.598;2023-01-31T00:24:16;99745.65;;;21.27;23.69
51999;BME280;38015;50.924;11.598;2023-01-31T00:26:46;99749.43;;;21.25;23.77
51999;BME280;38015;50.924;11.598;2023-01-31T00:29:16;99746.39;;;21.25;23.75
51999;BME280;38015;50.924;11.598;2023-01-31T00:31:49;99745.45;;;21.31;23.66
51999;BME280;38015;50.924;11.598;2023-01-31T00:34:17;99747.02;;;21.27;23.64
51999;BME280;38015;50.924;11.598;2023-01-31T00:36:49;99746.21;;;21.17;23.81
51999;BME280;38015;50.924;11.598;2023-01-31T00:39:18;99743.04;;;21.28;23.65
51999;BME280;38015;50.924;11.598;2023-01-31T00:41:49;99753.13;;;21.27;23.71
51999;BME280;38015;50.924;11.598;2023-01-31T00:44:19;99746.11;;;21.29;23.69
51999;BME280;38015;50.924;11.598;2023-01-31T00:46:50;99742.33;;;21.21;23.81
51999;BME280;38015;50.924;11.598;2023-01-31T00:49:20;99750.97;;;21.26;23.77
51999;BME280;38015;50.924;11.598;2023-01-31T00:51:51;99749.71;;;21.17;23.90
51999;BME280;38015;50.924;11.598;2023-01-31T00:54:21;99751.69;;;21.26;23.65
51999;BME280;38015;50.924;11.598;2023-01-31T00:56:51;99751.21;;;21.29;23.59
51999;BME280;38015;50.924;11.598;2023-01-31T00:59:22;99746.53;;;21.25;23.72
51999;BME280;38015;50.924;11.598;2023-01-31T01:01:52;99751.69;;;21.26;23.70
51999;BME280;38015;50.924;11.598;2023-01-31T01:04:23;99748.86;;;21.21;23.72
51999;BME280;38015;50.924;11.598;2023-01-31T01:06:53;99753.77;;;21.28;23.63
51999;BME280;38015;50.924;11.598;2023-01-31T01:09:25;99758.50;;;21.24;23.74
51999;BME280;38015;50.924;11.598;2023-01-31T01:11:54;99752.86;;;21.22;23.70
51999;BME280;38015;50.924;11.598;2023-01-31T01:14:25;99756.12;;;21.16;23.76
51999;BME280;38015;50.924;11.598;2023-01-31T01:16:55;99750.49;;;21.17;23.77
51999;BME280;38015;50.924;11.598;2023-01-31T01:19:26;99758.59;;;21.24;23.67
51999;BME280;38015;50.924;11.598;2023-01-31T01:21:56;99777.61;;;21.28;23.63
51999;BME280;38015;50.924;11.598;2023-01-31T01:24:27;99795.99;;;21.27;23.65
51999;BME280;38015;50.924;11.598;2023-01-31T01:26:57;99798.18;;;21.26;23.68
51999;BME280;38015;50.924;11.598;2023-01-31T01:29:28;99798.60;;;21.11;23.94
51999;BME280;38015;50.924;11.598;2023-01-31T01:31:58;99810.47;;;21.26;23.71
51999;BME280;38015;50.924;11.598;2023-01-31T01:34:29;99818.67;;;21.12;23.91
51999;BME280;38015;50.924;11.598;2023-01-31T01:37:02;99826.21;;;21.24;23.73
51999;BME280;38015;50.924;11.598;2023-01-31T01:39:30;99823.06;;;21.26;23.73
51999;BME280;38015;50.924;11.598;2023-01-31T01:42:00;99822.79;;;21.20;23.77
51999;BME280;38015;50.924;11.598;2023-01-31T01:47:02;99825.97;;;21.26;23.73
51999;BME280;38015;50.924;11.598;2023-01-31T01:49:34;99821.95;;;21.33;23.66
51999;BME280;38015;50.924;11.598;2023-01-31T01:52:06;99823.36;;;21.29;23.74
51999;BME280;38015;50.924;11.598;2023-01-31T01:54:35;99825.58;;;21.28;23.77
51999;BME280;38015;50.924;11.598;2023-01-31T01:57:05;99833.83;;;21.19;23.87
51999;BME280;38015;50.924;11.598;2023-01-31T01:59:39;99837.36;;;21.23;23.83
51999;BME280;38015;50.924;11.598;2023-01-31T02:02:06;99842.70;;;21.19;23.90
51999;BME280;38015;50.924;11.598;2023-01-31T02:04:39;99838.82;;;21.26;23.78
51999;BME280;38015;50.924;11.598;2023-01-31T02:07:06;99844.83;;;21.22;23.85
51999;BME280;38015;50.924;11.598;2023-01-31T02:09:46;99844.96;;;21.26;23.80
51999;BME280;38015;50.924;11.598;2023-01-31T02:12:08;99849.40;;;21.25;23.81
51999;BME280;38015;50.924;11.598;2023-01-31T02:14:38;99842.58;;;21.30;23.75
51999;BME280;38015;50.924;11.598;2023-01-31T02:17:13;99842.31;;;21.20;23.89
51999;BME280;38015;50.924;11.598;2023-01-31T02:19:46;99842.16;;;21.23;23.83
51999;BME280;38015;50.924;11.598;2023-01-31T02:22:16;99846.45;;;21.07;24.10
51999;BME280;38015;50.924;11.598;2023-01-31T02:27:18;99851.96;;;21.28;23.79
51999;BME280;38015;50.924;11.598;2023-01-31T02:29:53;99849.75;;;21.29;23.77
51999;BME280;38015;50.924;11.598;2023-01-31T02:32:24;99856.15;;;21.34;23.65
51999;BME280;38015;50.924;11.598;2023-01-31T02:34:50;99861.28;;;21.37;23.60
51999;BME280;38015;50.924;11.598;2023-01-31T02:37:21;99875.84;;;21.24;23.76
51999;BME280;38015;50.924;11.598;2023-01-31T02:39:59;99870.47;;;21.36;23.60
51999;BME280;38015;50.924;11.598;2023-01-31T02:42:18;99876.86;;;21.25;23.73
51999;BME280;38015;50.924;11.598;2023-01-31T02:44:51;99877.21;;;21.33;23.59
51999;BME280;38015;50.924;11.598;2023-01-31T02:47:23;99880.75;;;21.26;23.70
51999;BME280;38015;50.924;11.598;2023-01-31T02:49:47;99891.30;;;21.33;23.60
51999;BME280;38015;50.924;11.598;2023-01-31T02:52:19;99893.53;;;21.28;23.69
51999;BME280;38015;50.924;11.598;2023-01-31T02:54:53;99896.88;;;21.31;23.65
51999;BME280;38015;50.924;11.598;2023-01-31T02:57:16;99897.02;;;21.30;23.67
51999;BME280;38015;50.924;11.598;2023-01-31T02:59:47;99900.60;;;21.34;23.61
51999;BME280;38015;50.924;11.598;2023-01-31T03:02:17;99912.22;;;21.25;23.71
51999;BME280;38015;50.924;11.598;2023-01-31T03:04:47;99917.73;;;21.27;23.69
51999;BME280;38015;50.924;11.598;2023-01-31T03:07:22;99906.39;;;21.29;23.70
51999;BME280;38015;50.924;11.598;2023-01-31T03:09:57;99905.38;;;21.23;23.79
51999;BME280;38015;50.924;11.598;2023-01-31T03:12:30;99914.49;;;21.24;23.81
51999;BME280;38015;50.924;11.598;2023-01-31T03:14:59;99901.53;;;21.30;23.72
51999;BME280;38015;50.924;11.598;2023-01-31T03:17:26;99896.89;;;21.32;23.67
51999;BME280;38015;50.924;11.598;2023-01-31T03:19:58;99902.51;;;21.30;23.71
51999;BME280;38015;50.924;11.598;2023-01-31T03:22:26;99901.61;;;21.30;23.70
51999;BME280;38015;50.924;11.598;2023-01-31T03:24:52;99908.81;;;21.27;23.80
51999;BME280;38015;50.924;11.598;2023-01-31T03:27:24;99906.15;;;21.31;23.74
51999;BME280;38015;50.924;11.598;2023-01-31T03:29:58;99911.82;;;21.28;23.77
51999;BME280;38015;50.924;11.598;2023-01-31T03:32:28;99902.94;;;21.32;23.75
51999;BME280;38015;50.924;11.598;2023-01-31T03:34:54;99907.86;;;21.27;23.82
51999;BME280;38015;50.924;11.598;2023-01-31T03:37:30;99905.48;;;21.20;23.93
51999;BME280;38015;50.924;11.598;2023-01-31T03:40:02;99899.83;;;21.22;23.93
51999;BME280;38015;50.924;11.598;2023-01-31T03:42:32;99911.97;;;21.11;24.08
51999;BME280;38015;50.924;11.598;2023-01-31T03:45:01;99905.63;;;21.09;24.07
51999;BME280;38015;50.924;11.598;2023-01-31T03:47:30;99912.76;;;21.29;23.81
51999;BME280;38015;50.924;11.598;2023-01-31T03:50:03;99916.86;;;21.18;23.97
51999;BME280;38015;50.924;11.598;2023-01-31T03:52:34;99919.29;;;21.28;23.86
51999;BME280;38015;50.924;11.598;2023-01-31T03:55:02;99912.30;;;21.18;24.02
51999;BME280;38015;50.924;11.598;2023-01-31T03:57:30;99906.32;;;21.20;23.98
51999;BME280;38015;50.924;11.598;2023-01-31T04:00:04;99902.22;;;21.14;24.09
51999;BME280;38015;50.924;11.598;2023-01-31T04:02:35;99905.60;;;21.23;23.94
51999;BME280;38015;50.924;11.598;2023-01-31T04:05:05;99914.40;;;21.08;24.16
51999;BME280;38015;50.924;11.598;2023-01-31T04:07:30;99911.09;;;21.06;24.20
51999;BME280;38015;50.924;11.598;2023-01-31T04:10:01;99909.46;;;21.26;23.89
51999;BME280;38015;50.924;11.598;2023-01-31T04:12:35;99899.23;;;21.20;23.96
51999;BME280;38015;50.924;11.598;2023-01-31T04:15:02;99891.06;;;21.22;23.93
51999;BME280;38015;50.924;11.598;2023-01-31T04:17:32;99884.73;;;21.23;23.88
51999;BME280;38015;50.924;11.598;2023-01-31T04:20:04;99879.48;;;21.21;23.93
51999;BME280;38015;50.924;11.598;2023-01-31T04:22:33;99876.40;;;21.27;23.83
51999;BME280;38015;50.924;11.598;2023-01-31T04:25:06;99895.74;;;21.20;23.97
51999;BME280;38015;50.924;11.598;2023-01-31T04:27:34;99893.41;;;21.21;23.95
51999;BME280;38015;50.924;11.598;2023-01-31T04:30:06;99893.83;;;21.24;23.90
51999;BME280;38015;50.924;11.598;2023-01-31T04:32:35;99899.26;;;21.23;23.95
51999;BME280;38015;50.924;11.598;2023-01-31T04:35:06;99897.82;;;21.26;23.88
51999;BME280;38015;50.924;11.598;2023-01-31T04:37:36;99892.83;;;21.30;23.81
51999;BME280;38015;50.924;11.598;2023-01-31T04:40:08;99891.86;;;21.35;23.71
51999;BME280;38015;50.924;11.598;2023-01-31T04:42:37;99890.85;;;21.32;23.76
51999;BME280;38015;50.924;11.598;2023-01-31T04:45:08;99891.26;;;21.30;23.83
51999;BME280;38015;50.924;11.598;2023-01-31T04:47:38;99894.10;;;21.36;23.72
51999;BME280;38015;50.924;11.598;2023-01-31T04:50:09;99891.77;;;21.31;23.80
51999;BME280;38015;50.924;11.598;2023-01-31T04:52:39;99892.13;;;21.33;23.78
51999;BME280;38015;50.924;11.598;2023-01-31T04:55:10;99891.95;;;21.19;24.01
51999;BME280;38015;50.924;11.598;2023-01-31T04:57:40;99895.07;;;21.14;24.09
51999;BME280;38015;50.924;11.598;2023-01-31T05:00:11;99899.82;;;21.15;24.08
51999;BME280;38015;50.924;11.598;2023-01-31T05:02:41;99899.03;;;21.24;23.91
51999;BME280;38015;50.924;11.598;2023-01-31T05:05:12;99904.13;;;21.18;24.02
51999;BME280;38015;50.924;11.598;2023-01-31T05:07:43;99911.61;;;21.25;23.93
51999;BME280;38015;50.924;11.598;2023-01-31T05:10:13;99910.24;;;21.06;24.16
51999;BME280;38015;50.924;11.598;2023-01-31T05:12:43;99910.38;;;21.20;23.95
51999;BME280;38015;50.924;11.598;2023-01-31T05:15:14;99908.60;;;21.29;23.73
51999;BME280;38015;50.924;11.598;2023-01-31T05:17:44;99909.10;;;21.28;23.81
51999;BME280;38015;50.924;11.598;2023-01-31T05:20:15;99912.90;;;21.32;23.70
51999;BME280;38015;50.924;11.598;2023-01-31T05:22:46;99904.67;;;21.32;23.76
51999;BME280;38015;50.924;11.598;2023-01-31T05:25:16;99898.05;;;21.34;23.73
51999;BME280;38015;50.924;11.598;2023-01-31T05:27:46;99900.91;;;21.35;23.68
51999;BME280;38015;50.924;11.598;2023-01-31T05:30:17;99903.71;;;21.18;24.00
51999;BME280;38015;50.924;11.598;2023-01-31T05:32:47;99907.80;;;21.17;24.03
51999;BME280;38015;50.924;11.598;2023-01-31T05:35:18;99912.63;;;21.28;23.87
51999;BME280;38015;50.924;11.598;2023-01-31T05:37:48;99922.49;;;21.25;23.89
51999;BME280;38015;50.924;11.598;2023-01-31T05:40:18;99923.23;;;21.30;23.81
51999;BME280;38015;50.924;11.598;2023-01-31T05:42:55;99917.02;;;21.20;23.96
51999;BME280;38015;50.924;11.598;2023-01-31T05:45:19;99925.72;;;21.18;24.04
51999;BME280;38015;50.924;11.598;2023-01-31T05:47:50;99933.83;;;21.12;24.09
51999;BME280;38015;50.924;11.598;2023-01-31T05:50:21;99932.07;;;21.24;23.94
51999;BME280;38015;50.924;11.598;2023-01-31T05:52:53;99929.21;;;21.19;24.01
51999;BME280;38015;50.924;11.598;2023-01-31T05:55:22;99933.26;;;21.12;24.13
51999;BME280;38015;50.924;11.598;2023-01-31T05:57:52;99938.88;;;21.05;24.24
51999;BME280;38015;50.924;11.598;2023-01-31T06:00:23;99942.23;;;21.00;24.32
51999;BME280;38015;50.924;11.598;2023-01-31T06:02:57;99941.45;;;21.16;24.05
51999;BME280;38015;50.924;11.598;2023-01-31T06:05:23;99942.71;;;21.17;24.07
51999;BME280;38015;50.924;11.598;2023-01-31T06:07:54;99946.52;;;21.06;24.20
51999;BME280;38015;50.924;11.598;2023-01-31T06:10:25;99955.72;;;21.14;24.10
51999;BME280;38015;50.924;11.598;2023-01-31T06:12:55;99962.54;;;21.08;24.18
51999;BME280;38015;50.924;11.598;2023-01-31T06:15:25;99959.63;;;21.14;24.12
51999;BME280;38015;50.924;11.598;2023-01-31T06:17:56;99962.15;;;21.24;23.93
51999;BME280;38015;50.924;11.598;2023-01-31T06:20:26;99957.25;;;21.20;23.98
51999;BME280;38015;50.924;11.598;2023-01-31T06:22:57;99958.25;;;21.17;24.03
51999;BME280;38015;50.924;11.598;2023-01-31T06:25:27;99963.16;;;21.04;24.21
51999;BME280;38015;50.924;11.598;2023-01-31T06:27:58;99961.48;;;21.21;23.94
51999;BME280;38015;50.924;11.598;2023-01-31T06:30:29;99959.54;;;21.21;23.96
51999;BME280;38015;50.924;11.598;2023-01-31T06:32:59;99962.94;;;21.27;23.87
51999;BME280;38015;50.924;11.598;2023-01-31T06:35:29;99961.45;;;21.07;24.17
51999;BME280;38015;50.924;11.598;2023-01-31T06:38:00;99961.77;;;21.28;23.83
51999;BME280;38015;50.924;11.598;2023-01-31T06:40:31;99967.29;;;21.27;23.86
51999;BME280;38015;50.924;11.598;2023-01-31T06:43:01;99970.28;;;21.31;23.80
51999;BME280;38015;50.924;11.598;2023-01-31T06:45:32;99966.73;;;21.35;23.75
51999;BME280;38015;50.924;11.598;2023-01-31T06:48:02;99977.20;;;21.34;23.75
51999;BME280;38015;50.924;11.598;2023-01-31T06:50:34;99974.45;;;21.33;23.73
51999;BME280;38015;50.924;11.598;2023-01-31T06:53:03;99972.56;;;21.35;23.71
51999;BME280;38015;50.924;11.598;2023-01-31T06:55:33;99975.68;;;21.38;23.67
51999;BME280;38015;50.924;11.598;2023-01-31T06:58:04;99970.43;;;21.38;23.70
51999;BME280;38015;50.924;11.598;2023-01-31T07:00:35;99969.53;;;21.35;23.73
51999;BME280;38015;50.924;11.598;2023-01-31T07:03:05;99971.38;;;21.19;23.96
51999;BME280;38015;50.924;11.598;2023-01-31T07:05:37;99968.55;;;21.32;23.78
51999;BME280;38015;50.924;11.598;2023-01-31T07:08:06;99966.53;;;21.26;23.85
51999;BME280;38015;50.924;11.598;2023-01-31T07:10:36;99968.12;;;21.32;23.78
51999;BME280;38015;50.924;11.598;2023-01-31T07:13:07;99969.66;;;21.28;23.82
51999;BME280;38015;50.924;11.598;2023-01-31T07:15:37;99967.69;;;21.28;23.85
51999;BME280;38015;50.924;11.598;2023-01-31T07:18:08;99960.70;;;21.33;23.76
51999;BME280;38015;50.924;11.598;2023-01-31T07:20:38;99955.63;;;21.34;23.73
51999;BME280;38015;50.924;11.598;2023-01-31T07:23:11;99956.33;;;21.35;23.70
51999;BME280;38015;50.924;11.598;2023-01-31T07:25:39;99962.28;;;21.34;23.72
51999;BME280;38015;50.924;11.598;2023-01-31T07:28:10;99962.24;;;21.26;23.84
51999;BME280;38015;50.924;11.598;2023-01-31T07:30:40;99962.06;;;21.31;23.76
51999;BME280;38015;50.924;11.598;2023-01-31T07:33:11;99962.83;;;21.34;23.73
51999;BME280;38015;50.924;11.598;2023-01-31T07:35:42;99962.91;;;21.24;23.82
51999;BME280;38015;50.924;11.598;2023-01-31T07:38:14;99953.07;;;21.35;23.70
51999;BME280;38015;50.924;11.598;2023-01-31T07:40:42;99952.88;;;21.35;23.71
51999;BME280;38015;50.924;11.598;2023-01-31T07:43:13;99948.48;;;21.38;23.64
51999;BME280;38015;50.924;11.598;2023-01-31T07:45:43;99951.74;;;21.31;23.73
51999;BME280;38015;50.924;11.598;2023-01-31T07:48:14;99950.75;;;21.38;23.62
51999;BME280;38015;50.924;11.598;2023-01-31T07:50:45;99946.44;;;21.40;23.61
51999;BME280;38015;50.924;11.598;2023-01-31T07:53:15;99936.82;;;21.38;23.63
51999;BME280;38015;50.924;11.598;2023-01-31T07:55:46;99935.93;;;21.36;23.66
51999;BME280;38015;50.924;11.598;2023-01-31T07:58:16;99928.44;;;21.34;23.69
51999;BME280;38015;50.924;11.598;2023-01-31T08:00:47;99926.07;;;21.37;23.65
51999;BME280;38015;50.924;11.598;2023-01-31T08:03:24;99920.99;;;21.40;23.61
51999;BME280;38015;50.924;11.598;2023-01-31T08:05:48;99920.84;;;21.43;23.56
51999;BME280;38015;50.924;11.598;2023-01-31T08:08:20;99925.68;;;21.37;23.64
51999;BME280;38015;50.924;11.598;2023-01-31T08:10:51;99925.34;;;21.42;23.58
51999;BME280;38015;50.924;11.598;2023-01-31T08:13:19;99927.30;;;21.25;23.82
51999;BME280;38015;50.924;11.598;2023-01-31T08:15:50;99919.62;;;21.39;23.63
51999;BME280;38015;50.924;11.598;2023-01-31T08:18:20;99917.74;;;21.41;23.60
51999;BME280;38015;50.924;11.598;2023-01-31T08:20:51;99922.15;;;21.40;23.60
51999;BME280;38015;50.924;11.598;2023-01-31T08:23:21;99922.96;;;21.42;23.58
51999;BME280;38015;50.924;11.598;2023-01-31T08:25:52;99914.91;;;21.39;23.62
51999;BME280;38015;50.924;11.598;2023-01-31T08:28:22;99907.68;;;21.37;23.64
51999;BME280;38015;50.924;11.598;2023-01-31T08:30:53;99902.03;;;21.42;23.58
51999;BME280;38015;50.924;11.598;2023-01-31T08:33:25;99912.91;;;21.42;23.59
51999;BME280;38015;50.924;11.598;2023-01-31T08:35:54;99924.79;;;21.28;23.79
51999;BME280;38015;50.924;11.598;2023-01-31T08:38:24;99918.83;;;21.40;23.62
51999;BME280;38015;50.924;11.598;2023-01-31T08:40:57;99927.08;;;21.40;23.63
51999;BME280;38015;50.924;11.598;2023-01-31T08:43:25;99920.59;;;21.43;23.57
51999;BME280;38015;50.924;11.598;2023-01-31T08:45:56;99913.64;;;21.44;23.56
51999;BME280;38015;50.924;11.598;2023-01-31T08:48:26;99909.90;;;21.39;23.62
51999;BME280;38015;50.924;11.598;2023-01-31T08:50:59;99905.92;;;21.35;23.70
51999;BME280;38015;50.924;11.598;2023-01-31T08:53:28;99909.84;;;21.37;23.67
51999;BME280;38015;50.924;11.598;2023-01-31T08:55:58;99908.51;;;21.39;23.63
51999;BME280;38015;50.924;11.598;2023-01-31T08:58:30;99905.44;;;21.40;23.62
51999;BME280;38015;50.924;11.598;2023-01-31T09:01:00;99895.60;;;21.39;23.60
51999;BME280;38015;50.924;11.598;2023-01-31T09:03:29;99889.88;;;21.36;23.64
51999;BME280;38015;50.924;11.598;2023-01-31T09:06:04;99883.84;;;21.36;23.66
51999;BME280;38015;50.924;11.598;2023-01-31T09:08:31;99887.05;;;21.36;23.83
51999;BME280;38015;50.924;11.598;2023-01-31T09:11:01;99890.47;;;21.45;24.57
51999;BME280;38015;50.924;11.598;2023-01-31T09:13:33;99887.41;;;21.44;24.45
51999;BME280;38015;50.924;11.598;2023-01-31T09:16:06;99891.24;;;21.29;24.76
51999;BME280;38015;50.924;11.598;2023-01-31T09:18:32;99896.93;;;21.17;25.11
51999;BME280;38015;50.924;11.598;2023-01-31T09:21:04;99896.68;;;21.39;25.01
51999;BME280;38015;50.924;11.598;2023-01-31T09:23:33;99897.10;;;21.47;24.88
51999;BME280;38015;50.924;11.598;2023-01-31T09:26:04;99889.14;;;21.31;25.34
51999;BME280;38015;50.924;11.598;2023-01-31T09:28:34;99900.28;;;21.48;25.14
51999;BME280;38015;50.924;11.598;2023-01-31T09:31:06;99888.24;;;21.47;25.29
51999;BME280;38015;50.924;11.598;2023-01-31T09:33:35;99880.46;;;21.48;25.36
51999;BME280;38015;50.924;11.598;2023-01-31T09:36:09;99879.55;;;21.38;25.65
51999;BME280;38015;50.924;11.598;2023-01-31T09:38:38;99879.22;;;21.48;25.43
51999;BME280;38015;50.924;11.598;2023-01-31T09:41:18;99883.01;;;21.45;25.60
51999;BME280;38015;50.924;11.598;2023-01-31T09:43:43;99873.18;;;21.46;25.73
51999;BME280;38015;50.924;11.598;2023-01-31T09:46:13;99875.59;;;21.61;25.53
51999;BME280;38015;50.924;11.598;2023-01-31T09:48:41;99861.22;;;21.51;25.74
51999;BME280;38015;50.924;11.598;2023-01-31T09:51:10;99854.66;;;21.53;25.75
51999;BME280;38015;50.924;11.598;2023-01-31T09:53:40;99852.72;;;21.65;25.69
51999;BME280;38015;50.924;11.598;2023-01-31T09:56:22;99843.64;;;21.60;25.77
51999;BME280;38015;50.924;11.598;2023-01-31T09:58:49;99843.38;;;21.48;26.01
51999;BME280;38015;50.924;11.598;2023-01-31T10:01:17;99837.48;;;21.58;25.80
51999;BME280;38015;50.924;11.598;2023-01-31T10:06:19;99834.11;;;21.61;25.90
51999;BME280;38015;50.924;11.598;2023-01-31T10:08:48;99827.55;;;21.65;25.87
51999;BME280;38015;50.924;11.598;2023-01-31T10:11:23;99829.22;;;21.58;26.16
51999;BME280;38015;50.924;11.598;2023-01-31T10:13:48;99831.08;;;21.43;26.50
51999;BME280;38015;50.924;11.598;2023-01-31T10:16:20;99828.00;;;21.66;26.21
51999;BME280;38015;50.924;11.598;2023-01-31T10:18:46;99832.51;;;21.85;26.00
51999;BME280;38015;50.924;11.598;2023-01-31T10:21:17;99830.01;;;21.70;26.08
51999;BME280;38015;50.924;11.598;2023-01-31T10:23:49;99816.23;;;21.81;25.95
51999;BME280;38015;50.924;11.598;2023-01-31T10:26:21;99827.13;;;21.85;25.72
51999;BME280;38015;50.924;11.598;2023-01-31T10:28:49;99821.88;;;21.81;25.50
51999;BME280;38015;50.924;11.598;2023-01-31T10:31:25;99832.73;;;21.71;25.39
51999;BME280;38015;50.924;11.598;2023-01-31T10:33:51;99833.18;;;21.67;25.37
51999;BME280;38015;50.924;11.598;2023-01-31T10:36:24;99832.50;;;21.81;25.01
51999;BME280;38015;50.924;11.598;2023-01-31T10:38:59;99841.62;;;21.86;24.89
51999;BME280;38015;50.924;11.598;2023-01-31T10:41:24;99840.74;;;21.81;24.92
51999;BME280;38015;50.924;11.598;2023-01-31T10:43:58;99828.19;;;21.84;24.82
51999;BME280;38015;50.924;11.598;2023-01-31T10:46:19;99815.38;;;21.84;24.78
51999;BME280;38015;50.924;11.598;2023-01-31T10:48:50;99802.03;;;21.76;24.89
51999;BME280;38015;50.924;11.598;2023-01-31T10:51:29;99792.31;;;21.82;24.75
51999;BME280;38015;50.924;11.598;2023-01-31T10:54:04;99798.32;;;21.91;24.62
51999;BME280;38015;50.924;11.598;2023-01-31T10:56:27;99785.28;;;21.90;24.60
51999;BME280;38015;50.924;11.598;2023-01-31T10:58:52;99755.23;;;21.82;24.81
51999;BME280;38015;50.924;11.598;2023-01-31T11:01:23;99752.31;;;21.76;25.04
51999;BME280;38015;50.924;11.598;2023-01-31T11:03:54;99755.53;;;21.91;24.90
51999;BME280;38015;50.924;11.598;2023-01-31T11:06:23;99755.79;;;21.87;25.10
51999;BME280;38015;50.924;11.598;2023-01-31T11:08:56;99763.69;;;21.69;25.40
51999;BME280;38015;50.924;11.598;2023-01-31T11:11:26;99768.23;;;21.89;25.21
51999;BME280;38015;50.924;11.598;2023-01-31T11:13:57;99774.07;;;21.91;25.29
51999;BME280;38015;50.924;11.598;2023-01-31T11:16:29;99761.58;;;21.83;25.41
51999;BME280;38015;50.924;11.598;2023-01-31T11:18:56;99761.06;;;21.94;25.30
51999;BME280;38015;50.924;11.598;2023-01-31T11:21:29;99756.09;;;21.89;25.39
51999;BME280;38015;50.924;11.598;2023-01-31T11:24:02;99763.41;;;21.78;25.62
51999;BME280;38015;50.924;11.598;2023-01-31T11:26:32;99761.20;;;21.67;25.80
51999;BME280;38015;50.924;11.598;2023-01-31T11:28:58;99759.69;;;21.67;25.87
51999;BME280;38015;50.924;11.598;2023-01-31T11:31:31;99747.85;;;21.83;25.64
51999;BME280;38015;50.924;11.598;2023-01-31T11:34:01;99740.27;;;21.82;25.70
51999;BME280;38015;50.924;11.598;2023-01-31T11:36:32;99735.45;;;21.91;25.58
51999;BME280;38015;50.924;11.598;2023-01-31T11:41:32;99726.36;;;21.96;25.95
51999;BME280;38015;50.924;11.598;2023-01-31T11:44:07;99720.39;;;21.72;26.62
51999;BME280;38015;50.924;11.598;2023-01-31T11:46:41;99709.78;;;21.74;26.82
51999;BME280;38015;50.924;11.598;2023-01-31T11:49:09;99703.58;;;21.72;27.01
51999;BME280;38015;50.924;11.598;2023-01-31T11:51:32;99694.95;;;21.71;27.22
51999;BME280;38015;50.924;11.598;2023-01-31T11:54:04;99689.89;;;21.83;27.25
51999;BME280;38015;50.924;11.598;2023-01-31T11:56:35;99689.46;;;21.88;27.31
51999;BME280;38015;50.924;11.598;2023-01-31T11:59:05;99683.41;;;21.74;27.68
51999;BME280;38015;50.924;11.598;2023-01-31T12:01:42;99677.31;;;21.68;27.93
51999;BME280;38015;50.924;11.598;2023-01-31T12:04:05;99670.10;;;21.71;27.97
51999;BME280;38015;50.924;11.598;2023-01-31T12:06:37;99661.60;;;21.94;27.76
51999;BME280;38015;50.924;11.598;2023-01-31T12:09:19;99651.18;;;21.94;27.80
51999;BME280;38015;50.924;11.598;2023-01-31T12:11:36;99645.74;;;21.93;27.92
51999;BME280;38015;50.924;11.598;2023-01-31T12:14:14;99642.13;;;21.87;28.20
51999;BME280;38015;50.924;11.598;2023-01-31T12:16:37;99631.10;;;21.95;28.08
51999;BME280;38015;50.924;11.598;2023-01-31T12:19:18;99628.48;;;22.05;28.05
51999;BME280;38015;50.924;11.598;2023-01-31T12:21:48;99612.08;;;22.15;28.07
51999;BME280;38015;50.924;11.598;2023-01-31T12:24:17;99612.23;;;22.03;28.38
51999;BME280;38015;50.924;11.598;2023-01-31T12:26:45;99599.38;;;22.07;28.37
51999;BME280;38015;50.924;11.598;2023-01-31T12:29:26;99593.40;;;21.94;28.64
51999;BME280;38015;50.924;11.598;2023-01-31T12:31:54;99584.95;;;21.97;28.81
51999;BME280;38015;50.924;11.598;2023-01-31T12:34:23;99579.64;;;22.18;28.40
51999;BME280;38015;50.924;11.598;2023-01-31T12:36:51;99575.05;;;22.19;28.64
51999;BME280;38015;50.924;11.598;2023-01-31T12:39:17;99566.93;;;22.20;28.71
51999;BME280;38015;50.924;11.598;2023-01-31T12:41:56;99561.65;;;22.13;29.02
51999;BME280;38015;50.924;11.598;2023-01-31T12:44:23;99539.15;;;22.28;28.93
51999;BME280;38015;50.924;11.598;2023-01-31T12:46:55;99529.94;;;22.26;28.92
51999;BME280;38015;50.924;11.598;2023-01-31T12:51:46;99532.55;;;22.10;28.09
51999;BME280;38015;50.924;11.598;2023-01-31T12:54:24;99533.61;;;22.12;27.86
51999;BME280;38015;50.924;11.598;2023-01-31T12:56:54;99532.42;;;22.13;27.67
51999;BME280;38015;50.924;11.598;2023-01-31T12:59:27;99532.77;;;22.08;27.72
51999;BME280;38015;50.924;11.598;2023-01-31T13:01:50;99522.98;;;22.08;27.59
51999;BME280;38015;50.924;11.598;2023-01-31T13:04:29;99520.06;;;21.95;27.70
51999;BME280;38015;50.924;11.598;2023-01-31T13:06:50;99514.87;;;22.07;27.43
51999;BME280;38015;50.924;11.598;2023-01-31T13:09:19;99504.99;;;22.06;27.36
51999;BME280;38015;50.924;11.598;2023-01-31T13:11:50;99491.39;;;22.01;27.36
51999;BME280;38015;50.924;11.598;2023-01-31T13:14:22;99489.84;;;21.92;27.43
51999;BME280;38015;50.924;11.598;2023-01-31T13:16:52;99494.98;;;21.97;27.22
51999;BME280;38015;50.924;11.598;2023-01-31T13:19:24;99490.38;;;21.88;27.24